Time;durP1;ratioP1;P1;durP2;ratioP2;P2;SDS_P1;SDS_P2;PMS_P1;PMS_P2;Temp;Humidity;BMP_temperature;BMP_pressure;BME280_temperature;BME280_humidity;BME280_pressure;Samples;Min_cycle;Max_cycle;Signal;HPM_P1;HPM_P2
2022/01/25 00:24:33;;;;;;;6.13;2.90;;;;;;;;;;5070355;28;20123;-37
2022/01/25 00:32:10;;;;;;;4.80;2.72;;;;;;;;;;5070364;28;20107;-37
2022/01/25 00:34:36;;;;;;;6.43;2.80;;;;;;;;;;5072761;28;20028;-38
2022/01/25 00:37:01;;;;;;;10.80;4.22;;;;;;;;;;5073843;28;20463;-38
2022/01/25 00:39:27;;;;;;;6.63;3.45;;;;;;;;;;5074220;28;20036;-37
2022/01/25 00:41:52;;;;;;;5.22;3.22;;;;;;;;;;5073674;28;20061;-37
2022/01/25 00:44:18;;;;;;;9.07;3.60;;;;;;;;;;5073743;28;20157;-37
2022/01/25 00:46:43;;;;;;;3.65;2.42;;;;;;;;;;5074092;28;20086;-38
2022/01/25 00:49:09;;;;;;;5.50;3.05;;;;;;;;;;5073599;28;20036;-38
2022/01/25 00:56:46;;;;;;;5.68;3.08;;;;;;;;;;5073651;28;20104;-38
2022/01/25 00:59:13;;;;;;;3.95;2.88;;;;;;;;;;5073708;28;20095;-37
2022/01/25 01:01:39;;;;;;;4.85;2.60;;;;;;;;;;5073581;28;20625;-37
2022/01/25 01:04:06;;;;;;;6.15;2.25;;;;;;;;;;5073303;28;20128;-38
2022/01/25 01:06:31;;;;;;;4.70;3.67;;;;;;;;;;5088976;28;20044;-38
2022/01/25 01:08:57;;;;;;;8.40;3.47;;;;;;;;;;5073533;28;20067;-37
2022/01/25 01:11:30;;;;;;;4.05;3.00;;;;;;;;;;5073473;28;20028;-38
2022/01/25 01:32:43;;;;;;;10.85;2.55;;;;;;;;;;5073226;28;20028;-37
2022/01/25 01:47:52;;;;;;;3.83;2.65;;;;;;;;;;5072664;28;20024;-37
2022/01/25 01:50:31;;;;;;;6.78;3.45;;;;;;;;;;5071527;28;20052;-37
2022/01/25 01:52:57;;;;;;;4.25;2.65;;;;;;;;;;5072879;28;20097;-37
2022/01/25 01:55:23;;;;;;;7.15;3.53;;;;;;;;;;5072814;28;20506;-38
2022/01/25 01:57:49;;;;;;;5.82;3.38;;;;;;;;;;5072343;28;20043;-37
2022/01/25 02:00:15;;;;;;;5.95;3.55;;;;;;;;;;5072515;28;20032;-37
2022/01/25 02:02:41;;;;;;;7.82;3.30;;;;;;;;;;5072227;28;20111;-37
2022/01/25 02:05:06;;;;;;;6.25;3.30;;;;;;;;;;5072131;28;20110;-37
2022/01/25 02:07:32;;;;;;;6.63;3.05;;;;;;;;;;5072430;28;20032;-37
2022/01/25 02:09:57;;;;;;;7.13;3.30;;;;;;;;;;5072523;28;20451;-37
2022/01/25 02:12:23;;;;;;;3.53;2.47;;;;;;;;;;5072221;28;20029;-38
2022/01/25 02:14:48;;;;;;;5.20;3.83;;;;;;;;;;5072100;28;20012;-37
2022/01/25 02:17:40;;;;;;;3.85;2.83;;;;;;;;;;5072290;28;20052;-38
2022/01/25 02:23:22;;;;;;;5.90;2.60;;;;;;;;;;5072127;28;20127;-37
2022/01/25 02:25:49;;;;;;;5.50;3.70;;;;;;;;;;5070423;28;20064;-37
2022/01/25 02:28:15;;;;;;;7.25;3.60;;;;;;;;;;5071870;28;20375;-37
2022/01/25 02:30:41;;;;;;;4.53;3.30;;;;;;;;;;5072047;28;20037;-37
2022/01/25 02:33:06;;;;;;;6.35;3.15;;;;;;;;;;5071599;28;20029;-37
2022/01/25 02:35:32;;;;;;;3.67;2.38;;;;;;;;;;5071658;28;20468;-37
2022/01/25 02:37:57;;;;;;;5.32;3.28;;;;;;;;;;5071631;28;20050;-37
2022/01/25 02:40:23;;;;;;;3.30;2.40;;;;;;;;;;5071837;28;20024;-38
2022/01/25 02:42:50;;;;;;;6.15;3.45;;;;;;;;;;5071433;28;20682;-37
2022/01/25 02:45:17;;;;;;;4.03;2.60;;;;;;;;;;5071467;28;20040;-37
2022/01/25 02:50:26;;;;;;;4.25;2.72;;;;;;;;;;5072070;28;20364;-38
2022/01/25 02:52:52;;;;;;;5.78;3.15;;;;;;;;;;5071774;28;20020;-37
2022/01/25 02:55:18;;;;;;;5.85;2.58;;;;;;;;;;5071288;28;20108;-37
2022/01/25 02:57:44;;;;;;;5.75;3.35;;;;;;;;;;5071288;28;20082;-37
2022/01/25 03:00:10;;;;;;;9.52;3.65;;;;;;;;;;5071142;28;20028;-37
2022/01/25 03:02:36;;;;;;;5.38;2.72;;;;;;;;;;5071565;28;20024;-38
2022/01/25 03:05:01;;;;;;;3.85;2.88;;;;;;;;;;5071653;28;20108;-37
2022/01/25 03:07:26;;;;;;;4.05;2.88;;;;;;;;;;5071134;28;20025;-37
2022/01/25 03:09:52;;;;;;;4.18;2.53;;;;;;;;;;5071330;28;20081;-37
2022/01/25 03:12:29;;;;;;;8.77;3.25;;;;;;;;;;5071158;28;20463;-37
2022/01/25 03:15:21;;;;;;;6.03;3.10;;;;;;;;;;5071471;28;20033;-37
2022/01/25 03:17:52;;;;;;;7.18;3.20;;;;;;;;;;5071120;28;20032;-37
2022/01/25 03:20:21;;;;;;;10.50;3.65;;;;;;;;;;5071429;28;20090;-37
2022/01/25 03:25:21;;;;;;;6.47;2.40;;;;;;;;;;5071288;28;20074;-37
2022/01/25 03:27:47;;;;;;;5.13;2.67;;;;;;;;;;5071316;28;20048;-37
2022/01/25 03:30:12;;;;;;;4.68;2.92;;;;;;;;;;5071223;28;20419;-37
2022/01/25 03:32:38;;;;;;;3.55;2.40;;;;;;;;;;5071052;28;20107;-37
2022/01/25 03:35:04;;;;;;;4.90;2.80;;;;;;;;;;5071160;28;20028;-37
2022/01/25 03:37:29;;;;;;;5.50;2.38;;;;;;;;;;5070993;28;20017;-38
2022/01/25 03:39:55;;;;;;;5.25;2.97;;;;;;;;;;5070948;28;20047;-38
2022/01/25 03:42:20;;;;;;;4.63;2.78;;;;;;;;;;5070617;28;20056;-37
2022/01/25 03:44:46;;;;;;;5.10;2.85;;;;;;;;;;5071066;28;20039;-37
2022/01/25 03:47:16;;;;;;;5.75;3.45;;;;;;;;;;5070735;28;20470;-37
2022/01/25 03:49:52;;;;;;;5.32;3.65;;;;;;;;;;5071153;28;20024;-37
2022/01/25 03:52:26;;;;;;;7.13;2.45;;;;;;;;;;5070720;28;20024;-38
2022/01/25 03:54:52;;;;;;;5.75;2.72;;;;;;;;;;5070838;28;20031;-37
2022/01/25 03:57:17;;;;;;;6.22;3.40;;;;;;;;;;5070658;28;20020;-38
2022/01/25 03:59:43;;;;;;;5.90;2.70;;;;;;;;;;5071072;28;20383;-37
2022/01/25 04:02:09;;;;;;;5.07;2.97;;;;;;;;;;5070616;28;20078;-37
2022/01/25 04:04:35;;;;;;;5.40;3.10;;;;;;;;;;5070605;28;20052;-37
2022/01/25 04:07:08;;;;;;;5.00;2.75;;;;;;;;;;5071159;28;20417;-38
2022/01/25 04:09:33;;;;;;;5.07;2.58;;;;;;;;;;5072769;28;20029;-38
2022/01/25 04:12:00;;;;;;;4.18;2.08;;;;;;;;;;5073188;28;20115;-37
2022/01/25 04:14:26;;;;;;;5.07;2.70;;;;;;;;;;5074222;28;20048;-37
2022/01/25 04:16:58;;;;;;;3.78;2.35;;;;;;;;;;5074359;28;20025;-37
2022/01/25 04:19:41;;;;;;;5.00;2.35;;;;;;;;;;5074159;28;20033;-38
2022/01/25 04:27:09;;;;;;;5.38;2.75;;;;;;;;;;5074099;28;20024;-38
2022/01/25 04:29:34;;;;;;;3.80;2.75;;;;;;;;;;5074085;28;20070;-37
2022/01/25 04:32:00;;;;;;;3.13;2.40;;;;;;;;;;5074058;28;20083;-38
2022/01/25 04:34:40;;;;;;;5.65;3.25;;;;;;;;;;5073912;28;20143;-37
2022/01/25 04:59:01;;;;;;;3.58;2.50;;;;;;;;;;5036280;28;20561;-37
2022/01/25 05:01:27;;;;;;;5.78;2.95;;;;;;;;;;5073463;28;20027;-37
2022/01/25 05:06:18;;;;;;;7.32;3.00;;;;;;;;;;5073325;28;20043;-39
2022/01/25 05:08:49;;;;;;;4.38;2.45;;;;;;;;;;5073447;28;20028;-37
2022/01/25 05:11:27;;;;;;;7.18;2.75;;;;;;;;;;5073589;28;20036;-37
2022/01/25 05:14:13;;;;;;;6.07;2.92;;;;;;;;;;5073298;28;20289;-37
2022/01/25 05:16:49;;;;;;;4.78;2.38;;;;;;;;;;5071890;28;20466;-38
2022/01/25 05:24:40;;;;;;;3.97;2.75;;;;;;;;;;5072995;28;20050;-38
2022/01/25 05:27:07;;;;;;;7.00;2.95;;;;;;;;;;5072997;28;20072;-37
2022/01/25 05:29:32;;;;;;;5.60;2.83;;;;;;;;;;5073330;28;20098;-38
2022/01/25 05:31:58;;;;;;;6.05;3.67;;;;;;;;;;5072963;28;20514;-38
2022/01/25 05:34:24;;;;;;;4.85;2.88;;;;;;;;;;5073206;28;20021;-38
2022/01/25 05:36:49;;;;;;;4.78;2.90;;;;;;;;;;5072793;28;20024;-38
2022/01/25 05:39:22;;;;;;;4.97;2.97;;;;;;;;;;5072786;28;20024;-38
2022/01/25 05:42:01;;;;;;;4.40;2.15;;;;;;;;;;5072562;28;20174;-38
2022/01/25 05:47:14;;;;;;;5.20;2.53;;;;;;;;;;5072546;28;20040;-37
2022/01/25 05:49:40;;;;;;;6.07;3.03;;;;;;;;;;5072712;28;20032;-37
2022/01/25 05:52:07;;;;;;;5.72;3.03;;;;;;;;;;5072339;28;20077;-37
2022/01/25 05:54:33;;;;;;;8.10;3.45;;;;;;;;;;5072525;28;20079;-37
2022/01/25 05:56:58;;;;;;;3.97;2.67;;;;;;;;;;5072838;28;20067;-38
2022/01/25 05:59:23;;;;;;;4.47;2.60;;;;;;;;;;5072543;28;20170;-38
2022/01/25 06:01:49;;;;;;;9.73;3.05;;;;;;;;;;5071205;28;20028;-37
2022/01/25 06:04:15;;;;;;;4.68;2.83;;;;;;;;;;5072127;28;20028;-37
2022/01/25 06:06:40;;;;;;;4.45;2.42;;;;;;;;;;5072154;28;20490;-37
2022/01/25 06:09:05;;;;;;;4.32;2.42;;;;;;;;;;5072271;28;20020;-37
2022/01/25 06:11:32;;;;;;;5.15;2.83;;;;;;;;;;5072389;28;20017;-37
2022/01/25 06:13:57;;;;;;;9.75;3.85;;;;;;;;;;5072123;28;20153;-37
2022/01/25 06:16:24;;;;;;;8.15;3.55;;;;;;;;;;5072293;28;20095;-38
2022/01/25 06:18:50;;;;;;;7.65;2.65;;;;;;;;;;5072026;28;20016;-37
2022/01/25 06:21:15;;;;;;;7.68;3.28;;;;;;;;;;5072200;28;20112;-37
2022/01/25 06:23:40;;;;;;;4.47;3.10;;;;;;;;;;5072147;28;20035;-37
2022/01/25 06:26:06;;;;;;;5.55;2.55;;;;;;;;;;5072181;28;20055;-37
2022/01/25 06:28:31;;;;;;;5.00;2.80;;;;;;;;;;5072108;28;20032;-37
2022/01/25 06:30:57;;;;;;;4.72;3.28;;;;;;;;;;5087611;28;20016;-37
2022/01/25 06:33:23;;;;;;;8.70;4.00;;;;;;;;;;5071666;28;20013;-37
2022/01/25 06:35:49;;;;;;;4.97;2.50;;;;;;;;;;5071993;28;20050;-37
2022/01/25 06:38:14;;;;;;;5.32;2.78;;;;;;;;;;5071701;28;20079;-37
2022/01/25 06:40:40;;;;;;;6.60;2.85;;;;;;;;;;5071983;28;20036;-37
2022/01/25 06:43:06;;;;;;;5.70;2.70;;;;;;;;;;5071333;28;20090;-37
2022/01/25 06:45:31;;;;;;;6.15;3.70;;;;;;;;;;5071789;28;20036;-37
2022/01/25 06:47:56;;;;;;;11.68;3.95;;;;;;;;;;5071477;28;20107;-37
2022/01/25 06:50:23;;;;;;;8.55;3.20;;;;;;;;;;5071739;28;20029;-37
2022/01/25 06:52:50;;;;;;;28.35;10.65;;;;;;;;;;5071776;28;20063;-37
2022/01/25 06:55:17;;;;;;;13.40;5.07;;;;;;;;;;5071538;28;20048;-37
2022/01/25 06:57:43;;;;;;;13.23;5.85;;;;;;;;;;5071437;28;20024;-37
2022/01/25 07:00:14;;;;;;;7.05;4.20;;;;;;;;;;5071225;28;20040;-37
2022/01/25 07:02:39;;;;;;;11.77;4.70;;;;;;;;;;5071465;28;20352;-37
2022/01/25 07:05:05;;;;;;;8.88;3.72;;;;;;;;;;5071556;28;20058;-37
2022/01/25 07:07:31;;;;;;;7.40;3.20;;;;;;;;;;5071119;28;20020;-37
2022/01/25 07:09:57;;;;;;;7.28;4.28;;;;;;;;;;5071319;28;20417;-37
2022/01/25 07:12:23;;;;;;;5.72;3.10;;;;;;;;;;5071320;28;20027;-37
2022/01/25 07:14:48;;;;;;;7.32;3.45;;;;;;;;;;5071304;28;20474;-37
2022/01/25 07:17:14;;;;;;;7.95;3.47;;;;;;;;;;5086736;28;20048;-37
2022/01/25 07:19:39;;;;;;;4.50;2.75;;;;;;;;;;5071148;28;20036;-37
2022/01/25 07:22:04;;;;;;;5.45;3.35;;;;;;;;;;5071149;28;20017;-37
2022/01/25 07:24:30;;;;;;;10.15;5.82;;;;;;;;;;5071161;28;20044;-37
2022/01/25 07:26:56;;;;;;;6.95;3.55;;;;;;;;;;5071146;28;20039;-37
2022/01/25 07:29:21;;;;;;;5.22;3.10;;;;;;;;;;5071013;28;20617;-37
2022/01/25 07:31:47;;;;;;;7.60;2.70;;;;;;;;;;5071206;28;20086;-37
2022/01/25 07:34:13;;;;;;;7.50;3.22;;;;;;;;;;5070959;28;20391;-37
2022/01/25 07:36:41;;;;;;;6.43;3.80;;;;;;;;;;5071382;28;20029;-37
2022/01/25 07:39:06;;;;;;;7.82;3.17;;;;;;;;;;5071006;28;20494;-37
2022/01/25 07:41:32;;;;;;;6.18;2.65;;;;;;;;;;5070755;28;20021;-38
2022/01/25 07:43:59;;;;;;;8.93;2.95;;;;;;;;;;5072369;28;20041;-37
2022/01/25 07:46:25;;;;;;;4.57;2.67;;;;;;;;;;5075197;28;20071;-37
2022/01/25 07:48:50;;;;;;;5.10;2.85;;;;;;;;;;5075353;28;20029;-37
2022/01/25 07:51:16;;;;;;;7.85;3.05;;;;;;;;;;5074702;28;20024;-37
2022/01/25 07:53:43;;;;;;;4.10;2.38;;;;;;;;;;5074809;28;20037;-37
2022/01/25 07:56:09;;;;;;;6.75;3.53;;;;;;;;;;5074808;28;20021;-37
2022/01/25 07:58:35;;;;;;;4.43;2.47;;;;;;;;;;5075085;28;20035;-37
2022/01/25 08:01:00;;;;;;;8.10;2.83;;;;;;;;;;5074649;28;20103;-37
2022/01/25 08:03:25;;;;;;;9.02;3.90;;;;;;;;;;5074330;28;20083;-37
2022/01/25 08:05:51;;;;;;;4.43;2.67;;;;;;;;;;5074627;28;20107;-37
2022/01/25 08:08:17;;;;;;;4.30;3.55;;;;;;;;;;5074672;28;20119;-37
2022/01/25 08:10:43;;;;;;;8.73;3.25;;;;;;;;;;5074841;28;20021;-37
2022/01/25 08:13:08;;;;;;;4.80;2.95;;;;;;;;;;5074323;28;20040;-37
2022/01/25 08:15:34;;;;;;;4.82;2.80;;;;;;;;;;5074676;28;20028;-37
2022/01/25 08:17:59;;;;;;;6.78;3.60;;;;;;;;;;5074333;28;20105;-37
2022/01/25 08:20:25;;;;;;;5.85;2.88;;;;;;;;;;5074438;28;20027;-37
2022/01/25 08:22:51;;;;;;;7.28;4.40;;;;;;;;;;5090129;28;20074;-37
2022/01/25 08:25:16;;;;;;;6.43;2.97;;;;;;;;;;5074410;28;20020;-37
2022/01/25 08:27:42;;;;;;;6.57;3.40;;;;;;;;;;5074049;28;20485;-37
2022/01/25 08:30:08;;;;;;;13.05;3.80;;;;;;;;;;5074454;28;20221;-37
2022/01/25 08:32:34;;;;;;;4.97;2.58;;;;;;;;;;5074167;28;20467;-38
2022/01/25 08:34:59;;;;;;;8.23;3.65;;;;;;;;;;5073834;28;20025;-37
2022/01/25 08:37:24;;;;;;;8.55;3.67;;;;;;;;;;5089904;28;20426;-37
2022/01/25 08:39:50;;;;;;;2.10;1.95;;;;;;;;;;5072722;28;20024;-37
2022/01/25 08:42:16;;;;;;;7.22;3.53;;;;;;;;;;5073583;28;20053;-37
2022/01/25 08:44:41;;;;;;;4.25;2.85;;;;;;;;;;5073870;28;20043;-37
2022/01/25 08:47:07;;;;;;;5.72;3.00;;;;;;;;;;5073829;28;20379;-37
2022/01/25 08:49:33;;;;;;;4.40;2.45;;;;;;;;;;5073710;28;20099;-37
2022/01/25 08:51:58;;;;;;;19.83;4.45;;;;;;;;;;5073766;28;20036;-37
2022/01/25 08:54:25;;;;;;;10.32;3.83;;;;;;;;;;5073330;28;20025;-37
2022/01/25 08:56:51;;;;;;;7.57;4.07;;;;;;;;;;5073943;28;20040;-38
2022/01/25 08:59:16;;;;;;;7.30;3.38;;;;;;;;;;5073589;28;20021;-37
2022/01/25 09:01:42;;;;;;;5.97;3.22;;;;;;;;;;5073619;28;20059;-37
2022/01/25 09:04:07;;;;;;;6.80;3.33;;;;;;;;;;5073472;28;20024;-37
2022/01/25 09:06:33;;;;;;;9.60;3.60;;;;;;;;;;5073397;28;20032;-37
2022/01/25 09:09:01;;;;;;;7.32;4.65;;;;;;;;;;5089459;28;20029;-37
2022/01/25 09:11:27;;;;;;;5.50;2.83;;;;;;;;;;5073214;28;20497;-38
2022/01/25 09:13:52;;;;;;;5.15;2.95;;;;;;;;;;5073364;28;20021;-37
2022/01/25 09:16:18;;;;;;;5.20;3.15;;;;;;;;;;5073409;28;20467;-37
2022/01/25 09:18:44;;;;;;;5.32;3.13;;;;;;;;;;5073393;28;20027;-37
2022/01/25 09:21:09;;;;;;;6.80;3.40;;;;;;;;;;5073326;28;20479;-37
2022/01/25 09:23:35;;;;;;;7.63;3.88;;;;;;;;;;5071885;28;20040;-37
2022/01/25 09:26:02;;;;;;;7.68;3.78;;;;;;;;;;5073098;28;20621;-37
2022/01/25 09:28:28;;;;;;;6.70;3.50;;;;;;;;;;5073114;28;20024;-37
2022/01/25 09:30:54;;;;;;;6.60;4.05;;;;;;;;;;5073014;28;20474;-37
2022/01/25 09:33:21;;;;;;;7.82;3.13;;;;;;;;;;5072863;28;20423;-37
2022/01/25 09:35:47;;;;;;;8.60;4.40;;;;;;;;;;5073236;28;20418;-37
2022/01/25 09:38:12;;;;;;;7.22;3.97;;;;;;;;;;5073377;28;20078;-37
2022/01/25 09:40:38;;;;;;;6.15;4.07;;;;;;;;;;5072894;28;20077;-37
2022/01/25 09:43:06;;;;;;;10.30;4.63;;;;;;;;;;5072457;28;20049;-37
2022/01/25 09:45:31;;;;;;;9.48;4.85;;;;;;;;;;5072712;28;20029;-37
2022/01/25 09:47:57;;;;;;;5.47;3.35;;;;;;;;;;5072574;28;20463;-37
2022/01/25 09:50:23;;;;;;;5.13;3.22;;;;;;;;;;5072563;28;20036;-37
2022/01/25 09:52:49;;;;;;;7.85;3.33;;;;;;;;;;5072629;28;20016;-37
2022/01/25 09:55:16;;;;;;;9.15;4.28;;;;;;;;;;5072662;28;20195;-37
2022/01/25 09:57:42;;;;;;;8.85;4.00;;;;;;;;;;5088465;28;20016;-37
2022/01/25 10:00:09;;;;;;;9.63;4.78;;;;;;;;;;5072709;28;20486;-37
2022/01/25 10:02:35;;;;;;;11.90;3.92;;;;;;;;;;5072318;28;20150;-37
2022/01/25 10:05:17;;;;;;;8.07;3.70;;;;;;;;;;5072329;28;20549;-37
2022/01/25 10:07:53;;;;;;;5.40;3.25;;;;;;;;;;5071842;28;20467;-37
2022/01/25 10:10:19;;;;;;;6.95;3.05;;;;;;;;;;5088148;28;20035;-37
2022/01/25 10:12:45;;;;;;;5.68;3.03;;;;;;;;;;5072146;28;20103;-37
2022/01/25 10:15:10;;;;;;;13.30;4.13;;;;;;;;;;5072369;28;20104;-37
2022/01/25 10:17:36;;;;;;;5.35;3.25;;;;;;;;;;5072041;28;20382;-37
2022/01/25 10:20:05;;;;;;;7.20;3.55;;;;;;;;;;5072365;28;20100;-37
2022/01/25 10:22:40;;;;;;;8.38;4.20;;;;;;;;;;5071839;28;20028;-37
2022/01/25 10:25:06;;;;;;;9.93;5.07;;;;;;;;;;5087502;28;20048;-38
2022/01/25 10:28:01;;;;;;;7.75;3.50;;;;;;;;;;5070555;28;20553;-37
2022/01/25 10:30:36;;;;;;;8.95;4.75;;;;;;;;;;5072083;28;20024;-37
2022/01/25 10:33:02;;;;;;;8.90;3.97;;;;;;;;;;5071639;28;20024;-38
2022/01/25 10:35:29;;;;;;;11.80;4.30;;;;;;;;;;5071692;28;20508;-37
2022/01/25 10:37:55;;;;;;;6.35;3.78;;;;;;;;;;5071598;28;20122;-37
2022/01/25 10:40:35;;;;;;;9.95;5.68;;;;;;;;;;5071554;28;20024;-37
2022/01/25 10:43:04;;;;;;;17.67;4.70;;;;;;;;;;5071095;28;20055;-37
2022/01/25 10:45:30;;;;;;;7.43;4.50;;;;;;;;;;5070264;28;20469;-37
2022/01/25 10:47:56;;;;;;;11.10;5.10;;;;;;;;;;5071780;28;20036;-37
2022/01/25 10:50:22;;;;;;;12.20;5.32;;;;;;;;;;5071432;28;20017;-37
2022/01/25 10:53:01;;;;;;;14.00;6.28;;;;;;;;;;5071816;28;20378;-37
2022/01/25 10:55:35;;;;;;;9.88;4.63;;;;;;;;;;5071476;28;20036;-37
2022/01/25 10:58:02;;;;;;;9.55;4.50;;;;;;;;;;5071701;28;20048;-37
2022/01/25 11:00:37;;;;;;;6.90;3.90;;;;;;;;;;5071950;28;20012;-37
2022/01/25 11:03:03;;;;;;;14.23;5.20;;;;;;;;;;5071275;28;20044;-37
2022/01/25 11:05:32;;;;;;;11.05;5.05;;;;;;;;;;5071151;28;20087;-37
2022/01/25 11:08:08;;;;;;;11.98;5.20;;;;;;;;;;5071410;28;20505;-37
2022/01/25 11:10:34;;;;;;;14.57;7.60;;;;;;;;;;5071176;28;20071;-37
2022/01/25 11:13:04;;;;;;;15.93;5.40;;;;;;;;;;5071487;28;20225;-37
2022/01/25 11:15:30;;;;;;;8.80;4.78;;;;;;;;;;5071445;28;20090;-37
2022/01/25 11:17:55;;;;;;;13.48;5.65;;;;;;;;;;5069906;28;20433;-37
2022/01/25 11:20:21;;;;;;;11.13;4.80;;;;;;;;;;5071119;28;20481;-37
2022/01/25 11:22:47;;;;;;;11.80;5.47;;;;;;;;;;5071333;28;20070;-37
2022/01/25 11:25:14;;;;;;;12.68;5.00;;;;;;;;;;5069773;28;20463;-37
2022/01/25 11:27:41;;;;;;;10.35;5.70;;;;;;;;;;5071112;28;20016;-37
2022/01/25 11:30:09;;;;;;;11.10;5.90;;;;;;;;;;5071150;28;20028;-37
2022/01/25 11:32:38;;;;;;;13.98;5.60;;;;;;;;;;5071262;28;20028;-37
2022/01/25 11:35:05;;;;;;;14.10;6.80;;;;;;;;;;5070967;28;20424;-37
2022/01/25 11:37:57;;;;;;;14.23;4.47;;;;;;;;;;5071246;28;20036;-38
2022/01/25 11:40:23;;;;;;;22.17;7.80;;;;;;;;;;5068836;28;20406;-37
2022/01/25 11:42:49;;;;;;;5.97;3.72;;;;;;;;;;5070818;28;20048;-37
2022/01/25 11:45:19;;;;;;;10.23;5.57;;;;;;;;;;5070810;28;20117;-37
2022/01/25 11:47:48;;;;;;;12.02;6.40;;;;;;;;;;5071264;28;20379;-37
2022/01/25 11:50:14;;;;;;;11.60;6.03;;;;;;;;;;5070825;28;20081;-37
2022/01/25 11:52:48;;;;;;;14.23;5.65;;;;;;;;;;5070971;28;20094;-37
2022/01/25 11:55:22;;;;;;;11.95;6.88;;;;;;;;;;5070742;28;20035;-37
2022/01/25 11:57:51;;;;;;;13.52;5.88;;;;;;;;;;5070902;28;20035;-37
2022/01/25 12:00:20;;;;;;;15.27;6.10;;;;;;;;;;5070663;28;20471;-38
2022/01/25 12:02:47;;;;;;;17.08;6.57;;;;;;;;;;5070640;28;20086;-38
2022/01/25 12:05:14;;;;;;;12.50;5.93;;;;;;;;;;5069374;28;20036;-37
2022/01/25 12:08:00;;;;;;;12.60;5.70;;;;;;;;;;5070824;28;20391;-38
2022/01/25 12:10:29;;;;;;;14.85;5.90;;;;;;;;;;5070542;28;20033;-37
2022/01/25 12:13:13;;;;;;;18.40;7.22;;;;;;;;;;5070667;28;20479;-38
2022/01/25 12:15:39;;;;;;;13.73;6.22;;;;;;;;;;5070830;28;20033;-37
2022/01/25 12:18:07;;;;;;;12.95;6.43;;;;;;;;;;5070777;28;20131;-37
2022/01/25 12:20:45;;;;;;;13.80;6.32;;;;;;;;;;5069173;28;20452;-37
2022/01/25 12:23:17;;;;;;;11.75;4.82;;;;;;;;;;5070458;28;20043;-37
2022/01/25 12:26:05;;;;;;;14.18;6.40;;;;;;;;;;5069260;28;20041;-37
2022/01/25 12:28:32;;;;;;;16.45;7.57;;;;;;;;;;5070556;28;20036;-37
2022/01/25 12:31:01;;;;;;;14.10;7.07;;;;;;;;;;5073040;28;20122;-37
2022/01/25 12:33:28;;;;;;;10.75;5.75;;;;;;;;;;5074057;28;20024;-37
2022/01/25 12:35:59;;;;;;;7.88;5.22;;;;;;;;;;5073962;28;20016;-37
2022/01/25 12:38:27;;;;;;;18.00;7.82;;;;;;;;;;5074158;28;20074;-37
2022/01/25 12:40:52;;;;;;;12.18;6.18;;;;;;;;;;5074082;28;20056;-37
2022/01/25 12:43:19;;;;;;;10.35;4.65;;;;;;;;;;5073638;28;20084;-37
2022/01/25 12:45:53;;;;;;;13.40;7.07;;;;;;;;;;5072712;28;20127;-37
2022/01/25 12:48:30;;;;;;;15.98;6.63;;;;;;;;;;5073785;28;20383;-38
2022/01/25 12:50:57;;;;;;;15.75;7.90;;;;;;;;;;5074076;28;20028;-37
2022/01/25 12:53:23;;;;;;;16.33;7.53;;;;;;;;;;5073632;28;20021;-37
2022/01/25 12:55:50;;;;;;;20.10;8.63;;;;;;;;;;5073812;28;20032;-37
2022/01/25 12:58:18;;;;;;;15.35;6.93;;;;;;;;;;5073526;28;20553;-37
2022/01/25 13:00:45;;;;;;;15.10;6.25;;;;;;;;;;5073931;28;20036;-38
2022/01/25 13:03:12;;;;;;;14.32;5.90;;;;;;;;;;5073739;28;20116;-37
2022/01/25 13:05:42;;;;;;;15.25;6.63;;;;;;;;;;5073456;28;20032;-37
2022/01/25 13:08:15;;;;;;;18.17;6.38;;;;;;;;;;5073599;28;20032;-37
2022/01/25 13:10:40;;;;;;;13.57;5.78;;;;;;;;;;5073551;28;20035;-37
2022/01/25 13:13:21;;;;;;;14.52;5.50;;;;;;;;;;5073686;28;20116;-37
2022/01/25 13:18:13;;;;;;;16.33;7.93;;;;;;;;;;5073349;28;20103;-37
2022/01/25 13:20:41;;;;;;;17.98;7.50;;;;;;;;;;5073208;28;20056;-37
2022/01/25 13:23:07;;;;;;;17.33;6.65;;;;;;;;;;5073127;28;20542;-37
2022/01/25 13:25:54;;;;;;;15.45;6.57;;;;;;;;;;5073053;28;20166;-38
2022/01/25 13:28:37;;;;;;;10.85;6.75;;;;;;;;;;5073670;28;20037;-37
2022/01/25 13:31:06;;;;;;;15.15;7.00;;;;;;;;;;5073082;28;20032;-37
2022/01/25 13:33:32;;;;;;;21.63;8.02;;;;;;;;;;5072890;28;20060;-37
2022/01/25 13:36:00;;;;;;;13.27;6.05;;;;;;;;;;5072996;28;20063;-37
2022/01/25 13:38:26;;;;;;;14.25;6.18;;;;;;;;;;5072801;28;20479;-37
2022/01/25 13:41:02;;;;;;;14.63;6.60;;;;;;;;;;5072245;28;20317;-37
2022/01/25 13:45:43;;;;;;;14.60;6.57;;;;;;;;;;5072285;28;20048;-37
2022/01/25 13:46:19;;;;;;;12.38;6.07;;;;;;;;;;5072999;28;20374;-37
2022/01/25 13:48:46;;;;;;;12.52;7.25;;;;;;;;;;5072707;28;20490;-37
2022/01/25 13:51:13;;;;;;;21.17;6.97;;;;;;;;;;5072676;28;20036;-37
2022/01/25 13:53:40;;;;;;;12.25;5.68;;;;;;;;;;5072765;28;20379;-38
2022/01/25 13:56:07;;;;;;;13.23;6.25;;;;;;;;;;5072837;28;20525;-37
2022/01/25 13:58:33;;;;;;;14.75;6.18;;;;;;;;;;5072783;28;20043;-37
2022/01/25 14:00:59;;;;;;;12.00;5.30;;;;;;;;;;5072869;28;20463;-37
2022/01/25 14:03:34;;;;;;;17.10;7.03;;;;;;;;;;5072188;28;20050;-37
2022/01/25 14:06:00;;;;;;;12.20;6.78;;;;;;;;;;5072390;28;20158;-37
2022/01/25 14:08:32;;;;;;;12.20;6.40;;;;;;;;;;5072491;28;20095;-38
2022/01/25 14:11:00;;;;;;;11.07;5.72;;;;;;;;;;5072565;28;20028;-37
2022/01/25 14:22:10;;;;;;;5.10;4.03;;;;;;;;;;5071989;28;20086;-37
2022/01/25 14:24:36;;;;;;;11.40;5.93;;;;;;;;;;5072000;28;20049;-37
2022/01/25 14:27:23;;;;;;;12.18;5.60;;;;;;;;;;5071998;28;20462;-37
2022/01/25 14:29:52;;;;;;;14.45;5.78;;;;;;;;;;5071812;28;20029;-37
2022/01/25 14:32:28;;;;;;;11.90;6.47;;;;;;;;;;5072027;28;20374;-37
2022/01/25 14:35:03;;;;;;;10.82;4.97;;;;;;;;;;5072076;28;20032;-37
2022/01/25 14:37:29;;;;;;;17.45;7.10;;;;;;;;;;5072030;28;20119;-37
2022/01/25 14:40:03;;;;;;;9.18;5.60;;;;;;;;;;5071968;28;20104;-38
2022/01/25 14:42:29;;;;;;;16.08;7.53;;;;;;;;;;5071402;28;20056;-37
2022/01/25 14:44:59;;;;;;;12.27;7.65;;;;;;;;;;5071488;28;20036;-37
2022/01/25 14:47:34;;;;;;;13.85;7.43;;;;;;;;;;5071512;28;20029;-37
2022/01/25 14:50:01;;;;;;;17.13;6.50;;;;;;;;;;5071923;28;20051;-37
2022/01/25 14:52:27;;;;;;;25.95;8.00;;;;;;;;;;5071147;28;20131;-37
2022/01/25 14:54:52;;;;;;;13.77;5.55;;;;;;;;;;5071750;28;20119;-37
2022/01/25 14:57:24;;;;;;;20.52;7.40;;;;;;;;;;5071428;28;20039;-38
2022/01/25 14:59:50;;;;;;;17.65;8.25;;;;;;;;;;5071654;28;20093;-37
2022/01/25 15:02:17;;;;;;;18.52;8.50;;;;;;;;;;5071272;28;20471;-37
2022/01/25 15:04:44;;;;;;;16.60;6.55;;;;;;;;;;5086714;28;20036;-37
2022/01/25 15:07:10;;;;;;;16.88;5.80;;;;;;;;;;5071352;28;20020;-38
2022/01/25 15:09:36;;;;;;;11.07;5.90;;;;;;;;;;5071117;28;20040;-37
2022/01/25 15:12:02;;;;;;;12.98;6.30;;;;;;;;;;5071269;28;20477;-38
2022/01/25 15:14:37;;;;;;;15.30;7.72;;;;;;;;;;5069844;28;20028;-37
2022/01/25 15:17:04;;;;;;;15.32;7.00;;;;;;;;;;5070217;28;20029;-37
2022/01/25 15:19:29;;;;;;;20.40;8.18;;;;;;;;;;5071427;28;20017;-37
2022/01/25 15:21:55;;;;;;;11.27;5.63;;;;;;;;;;5071212;28;20032;-37
2022/01/25 15:24:21;;;;;;;10.82;5.82;;;;;;;;;;5071041;28;20044;-37
2022/01/25 15:26:52;;;;;;;13.82;7.00;;;;;;;;;;5069835;28;20115;-37
2022/01/25 15:29:23;;;;;;;12.77;6.35;;;;;;;;;;5071046;28;20032;-38
2022/01/25 15:31:54;;;;;;;12.18;6.10;;;;;;;;;;5071085;28;20060;-37
2022/01/25 15:34:20;;;;;;;13.13;5.75;;;;;;;;;;5070938;28;20032;-37
2022/01/25 15:36:47;;;;;;;20.60;7.70;;;;;;;;;;5070954;28;20020;-37
2022/01/25 15:39:13;;;;;;;13.23;6.57;;;;;;;;;;5071099;28;20025;-37
2022/01/25 15:41:38;;;;;;;12.70;6.05;;;;;;;;;;5070772;28;20530;-38
2022/01/25 15:44:06;;;;;;;17.27;6.55;;;;;;;;;;5070866;28;20041;-37
2022/01/25 15:46:44;;;;;;;14.10;6.85;;;;;;;;;;5071233;28;20109;-37
2022/01/25 15:49:09;;;;;;;19.67;7.32;;;;;;;;;;5070926;28;20475;-37
2022/01/25 15:51:35;;;;;;;13.18;6.97;;;;;;;;;;5070800;28;20025;-37
2022/01/25 15:54:02;;;;;;;13.68;6.93;;;;;;;;;;5071132;28;20056;-37
2022/01/25 15:56:27;;;;;;;14.30;7.40;;;;;;;;;;5070851;28;20402;-37
2022/01/25 15:58:53;;;;;;;10.60;6.68;;;;;;;;;;5071217;28;20031;-37
2022/01/25 16:01:19;;;;;;;16.95;7.47;;;;;;;;;;5071027;28;20013;-37
2022/01/25 16:03:45;;;;;;;12.95;6.70;;;;;;;;;;5070637;28;20064;-37
2022/01/25 16:06:11;;;;;;;18.15;7.65;;;;;;;;;;5089553;28;20063;-37
2022/01/25 16:08:37;;;;;;;14.35;7.22;;;;;;;;;;5090152;28;20020;-37
2022/01/25 16:11:06;;;;;;;13.10;7.40;;;;;;;;;;5074725;28;20081;-37
2022/01/25 16:13:32;;;;;;;15.38;7.05;;;;;;;;;;5074339;28;20490;-37
2022/01/25 16:15:57;;;;;;;14.52;6.43;;;;;;;;;;5074452;28;20021;-37
2022/01/25 16:18:23;;;;;;;12.77;6.03;;;;;;;;;;5074321;28;20037;-37
2022/01/25 16:20:49;;;;;;;14.68;7.68;;;;;;;;;;5074292;28;20111;-37
2022/01/25 16:23:14;;;;;;;15.25;6.65;;;;;;;;;;5074360;28;20056;-37
2022/01/25 16:25:40;;;;;;;14.93;6.55;;;;;;;;;;5074191;28;20035;-37
2022/01/25 16:28:06;;;;;;;10.75;5.53;;;;;;;;;;5074341;28;20038;-37
2022/01/25 16:30:34;;;;;;;15.27;6.38;;;;;;;;;;5074118;28;20111;-38
2022/01/25 16:33:00;;;;;;;12.57;6.30;;;;;;;;;;5074099;28;20020;-38
2022/01/25 16:35:25;;;;;;;20.92;7.47;;;;;;;;;;5074177;28;20103;-38
2022/01/25 16:37:53;;;;;;;13.65;6.95;;;;;;;;;;5074012;28;20485;-38
2022/01/25 16:40:19;;;;;;;8.65;4.70;;;;;;;;;;5073954;28;20532;-38
2022/01/25 16:42:45;;;;;;;11.77;6.00;;;;;;;;;;5073940;28;20132;-38
2022/01/25 16:45:12;;;;;;;13.73;6.68;;;;;;;;;;5073780;28;20044;-37